createdAt,value
2023-04-11T00:02:55.177Z,9.78
2023-04-11T00:08:23.378Z,9.65
2023-04-11T00:13:51.348Z,9.64
2023-04-11T00:19:23.510Z,9.69
2023-04-11T00:24:53.321Z,9.63
2023-04-11T00:30:20.904Z,9.66
2023-04-11T00:35:47.888Z,9.58
2023-04-11T00:41:14.814Z,9.52
2023-04-11T00:46:46.658Z,9.46
2023-04-11T00:52:14.343Z,9.39
2023-04-11T00:57:43.081Z,9.28
2023-04-11T01:03:10.537Z,9.22
2023-04-11T01:08:39.239Z,9.23
2023-04-11T01:14:07.490Z,9.21
2023-04-11T01:19:35.095Z,9.02
2023-04-11T01:25:02.393Z,9.27
2023-04-11T01:30:30.060Z,9.27
2023-04-11T01:35:57.294Z,9.23
2023-04-11T01:41:26.997Z,9.15
2023-04-11T01:46:54.214Z,9.07
2023-04-11T01:52:22.100Z,8.96
2023-04-11T01:57:49.310Z,8.84
2023-04-11T02:03:21.384Z,8.89
2023-04-11T02:08:49.455Z,8.95
2023-04-11T02:14:20.595Z,9.00
2023-04-11T02:19:48.490Z,8.85
2023-04-11T02:25:16.349Z,8.83
2023-04-11T02:30:43.213Z,8.83
2023-04-11T02:36:12.772Z,8.82
2023-04-11T02:41:41.041Z,8.83
2023-04-11T02:47:08.803Z,8.86
2023-04-11T02:52:39.624Z,8.86
2023-04-11T02:58:07.560Z,8.76
2023-04-11T03:03:35.533Z,8.72
2023-04-11T03:09:04.305Z,8.61
2023-04-11T03:14:33.068Z,8.67
2023-04-11T03:20:01.196Z,8.68
2023-04-11T03:25:29.932Z,8.59
2023-04-11T03:30:57.289Z,8.72
2023-04-11T03:36:28.899Z,8.79
2023-04-11T03:42:02.562Z,8.80
2023-04-11T03:47:31.900Z,8.78
2023-04-11T03:52:59.364Z,8.86
2023-04-11T03:58:28.601Z,8.95
2023-04-11T04:03:56.757Z,9.16
2023-04-11T04:09:24.726Z,9.21
2023-04-11T04:14:55.580Z,9.27
2023-04-11T04:20:23.678Z,9.48
2023-04-11T04:25:58.244Z,9.52
2023-04-11T04:31:33.925Z,9.56
2023-04-11T04:37:06.846Z,9.71
2023-04-11T04:42:44.346Z,9.84
2023-04-11T04:48:14.716Z,10.08
2023-04-11T04:53:42.922Z,10.03
2023-04-11T04:59:14.972Z,10.51
2023-04-11T05:04:48.878Z,10.68
2023-04-11T05:10:16.858Z,10.79
2023-04-11T05:15:49.596Z,10.99
2023-04-11T05:21:16.722Z,10.90
2023-04-11T05:26:47.114Z,10.72
2023-04-11T05:32:18.583Z,10.72
2023-04-11T05:37:46.299Z,10.88
2023-04-11T05:43:15.475Z,10.47
2023-04-11T05:48:43.052Z,10.90
2023-04-11T05:54:11.159Z,11.18
2023-04-11T05:59:38.939Z,11.19
2023-04-11T06:05:06.553Z,11.62
2023-04-11T06:10:34.843Z,11.95
2023-04-11T06:16:02.814Z,12.18
2023-04-11T06:21:32.133Z,12.43
2023-04-11T06:27:00.040Z,11.81
2023-04-11T06:32:28.454Z,11.92
2023-04-11T06:37:56.189Z,12.49
2023-04-11T06:43:25.510Z,12.67
2023-04-11T06:48:53.003Z,12.80
2023-04-11T06:54:21.356Z,12.65
2023-04-11T06:59:48.979Z,12.96
2023-04-11T07:05:16.454Z,12.62
2023-04-11T07:10:44.264Z,12.78
2023-04-11T07:16:12.245Z,12.79
2023-04-11T07:21:40.041Z,13.18
2023-04-11T07:27:07.204Z,13.64
2023-04-11T07:32:34.888Z,13.40
2023-04-11T07:38:02.368Z,14.20
2023-04-11T07:43:30.673Z,13.88
2023-04-11T07:48:58.112Z,14.03
2023-04-11T07:54:28.761Z,14.20
2023-04-11T07:59:57.418Z,14.80
2023-04-11T08:05:26.069Z,15.51
2023-04-11T08:10:53.106Z,15.96
2023-04-11T08:16:20.371Z,16.32
2023-04-11T08:21:48.552Z,16.47
2023-04-11T08:27:16.399Z,16.50
2023-04-11T08:32:44.737Z,16.79
2023-04-11T08:38:12.542Z,17.47
2023-04-11T08:43:40.602Z,17.63
2023-04-11T08:49:08.732Z,18.30
2023-04-11T08:54:36.321Z,18.62
2023-04-11T09:00:15.325Z,18.76
2023-04-11T09:05:44.816Z,18.55
2023-04-11T09:11:12.403Z,19.73
2023-04-11T09:16:54.550Z,20.76
2023-04-11T09:22:36.602Z,21.72
2023-04-11T09:28:10.483Z,21.38
2023-04-11T09:33:37.302Z,21.29
2023-04-11T09:39:20.636Z,21.41
2023-04-11T09:44:48.472Z,21.59
2023-04-11T09:50:16.233Z,22.99
2023-04-11T09:55:43.219Z,22.78
2023-04-11T10:01:10.950Z,21.86
2023-04-11T10:07:02.361Z,22.13
2023-04-11T10:12:34.143Z,22.77
2023-04-11T10:18:11.939Z,23.68
2023-04-11T10:24:15.878Z,22.77
2023-04-11T10:29:50.730Z,22.85
2023-04-11T10:35:18.155Z,22.76
2023-04-11T10:41:17.491Z,22.71
2023-04-11T10:46:49.973Z,22.96
2023-04-11T10:52:24.028Z,23.22
2023-04-11T10:58:20.052Z,22.59
2023-04-11T11:03:57.162Z,21.66
2023-04-11T11:09:25.901Z,21.11
2023-04-11T11:14:54.765Z,21.11
2023-04-11T11:20:22.014Z,19.94
2023-04-11T11:25:57.400Z,18.98
2023-04-11T11:31:35.274Z,18.45
2023-04-11T11:37:07.346Z,17.18
2023-04-11T11:42:37.017Z,16.02
2023-04-11T11:48:05.028Z,15.67
2023-04-11T11:53:33.132Z,15.02
2023-04-11T11:59:00.995Z,15.03
2023-04-11T12:04:31.222Z,14.87
2023-04-11T12:10:22.813Z,14.04
2023-04-11T12:15:55.852Z,13.31
2023-04-11T12:21:22.693Z,13.44
2023-04-11T12:27:05.649Z,13.97
2023-04-11T12:32:35.379Z,13.68
2023-04-11T12:38:04.511Z,13.67
2023-04-11T12:43:32.476Z,13.44
2023-04-11T12:49:00.136Z,14.04
2023-04-11T12:54:28.180Z,14.53
2023-04-11T12:59:56.283Z,14.76
2023-04-11T13:05:24.570Z,15.24
2023-04-11T13:10:53.449Z,15.27
2023-04-11T13:16:21.566Z,15.40
2023-04-11T13:21:49.509Z,15.91
2023-04-11T13:27:17.484Z,16.43
2023-04-11T13:32:45.106Z,17.19
2023-04-11T13:38:12.973Z,18.03
2023-04-11T13:43:39.901Z,18.52
2023-04-11T13:49:07.188Z,18.44
2023-04-11T13:54:33.918Z,18.24
2023-04-11T14:00:00.979Z,18.47
2023-04-11T14:05:28.877Z,18.71
2023-04-11T14:10:56.652Z,18.28
2023-04-11T14:16:24.049Z,17.71
2023-04-11T14:21:52.238Z,17.45
2023-04-11T14:27:19.248Z,17.66
2023-04-11T14:32:46.329Z,17.54
2023-04-11T14:38:16.091Z,17.30
2023-04-11T14:43:43.266Z,17.12
2023-04-11T14:49:10.198Z,16.98
2023-04-11T14:54:37.607Z,16.89
2023-04-11T15:00:06.771Z,17.07
2023-04-11T15:05:34.422Z,17.45
2023-04-11T15:11:03.551Z,17.71
2023-04-11T15:16:32.320Z,17.78
2023-04-11T15:21:59.348Z,17.98
2023-04-11T15:27:27.887Z,17.94
2023-04-11T15:32:55.380Z,17.95
2023-04-11T15:38:23.278Z,16.94
2023-04-11T15:43:50.789Z,15.92
2023-04-11T15:49:18.626Z,15.62
2023-04-11T15:54:46.684Z,15.61
2023-04-11T16:00:15.906Z,15.90
2023-04-11T16:05:44.373Z,16.07
2023-04-11T16:11:11.778Z,15.99
2023-04-11T16:16:39.516Z,15.91
2023-04-11T16:22:06.502Z,15.57
2023-04-11T16:27:34.155Z,15.75
2023-04-11T16:33:02.061Z,15.46
2023-04-11T16:38:29.652Z,15.47
2023-04-11T16:43:56.839Z,15.28
2023-04-11T16:49:25.267Z,14.86
2023-04-11T16:54:53.032Z,14.42
2023-04-11T17:00:20.970Z,14.27
2023-04-11T17:05:48.663Z,14.07
2023-04-11T17:11:15.882Z,13.82
2023-04-11T17:16:44.034Z,13.55
2023-04-11T17:22:11.900Z,13.14
2023-04-11T17:27:41.631Z,12.93
2023-04-11T17:33:09.973Z,12.46
2023-04-11T17:38:39.659Z,11.77
2023-04-11T17:44:06.910Z,11.53
2023-04-11T17:49:34.740Z,11.33
2023-04-11T17:55:03.711Z,11.21
2023-04-11T18:00:31.929Z,11.74
2023-04-11T18:06:01.449Z,11.85
2023-04-11T18:11:28.895Z,11.68
2023-04-11T18:16:56.171Z,11.57
2023-04-11T18:22:23.891Z,11.21
2023-04-11T18:27:51.921Z,11.15
2023-04-11T18:33:20.729Z,10.84
2023-04-11T18:38:49.392Z,10.83
2023-04-11T18:44:17.205Z,10.69
2023-04-11T18:49:44.960Z,10.58
2023-04-11T18:55:12.189Z,11.01
2023-04-11T19:00:40.216Z,10.90
2023-04-11T19:06:08.780Z,10.84
2023-04-11T19:11:38.383Z,10.72
2023-04-11T19:17:06.724Z,10.79
2023-04-11T19:22:36.064Z,11.04
2023-04-11T19:28:03.272Z,10.95
2023-04-11T19:33:31.836Z,10.80
2023-04-11T19:38:58.913Z,10.59
2023-04-11T19:44:26.188Z,10.50
2023-04-11T19:49:54.533Z,10.36
2023-04-11T19:55:22.710Z,10.10
2023-04-11T20:00:50.241Z,9.83
2023-04-11T20:06:18.869Z,9.60
2023-04-11T20:11:47.980Z,9.42
2023-04-11T20:17:16.070Z,9.30
2023-04-11T20:22:45.044Z,9.28
2023-04-11T20:28:12.802Z,9.17
2023-04-11T20:33:40.309Z,8.97
2023-04-11T20:39:08.225Z,8.90
2023-04-11T20:44:37.132Z,8.71
2023-04-11T20:50:10.549Z,8.42
2023-04-11T20:55:38.227Z,8.34
2023-04-11T21:01:05.685Z,8.06
2023-04-11T21:06:33.818Z,8.12
2023-04-11T21:12:02.532Z,7.86
2023-04-11T21:17:34.849Z,7.76
2023-04-11T21:23:03.154Z,7.62
2023-04-11T21:28:31.179Z,7.47
2023-04-11T21:33:58.747Z,7.39
2023-04-11T21:39:26.560Z,7.31
2023-04-11T21:44:54.665Z,7.21
2023-04-11T21:50:22.669Z,7.14
2023-04-11T21:55:50.640Z,7.15
2023-04-11T22:01:20.962Z,7.15
2023-04-11T22:06:48.640Z,6.96
2023-04-11T22:12:18.078Z,6.98
2023-04-11T22:17:51.270Z,6.86
2023-04-11T22:23:18.551Z,6.85
2023-04-11T22:28:46.628Z,6.76
2023-04-11T22:34:14.404Z,6.67
2023-04-11T22:39:41.747Z,6.66
2023-04-11T22:45:10.270Z,6.59
2023-04-11T22:50:37.524Z,6.54
2023-04-11T22:56:06.069Z,6.53
2023-04-11T23:01:33.789Z,6.55
2023-04-11T23:07:02.070Z,6.55
2023-04-11T23:12:29.937Z,6.54
2023-04-11T23:17:58.609Z,6.56
2023-04-11T23:23:25.537Z,6.48
2023-04-11T23:28:53.554Z,6.42
2023-04-11T23:34:21.210Z,6.43
2023-04-11T23:39:49.263Z,6.42
2023-04-11T23:45:20.771Z,6.25
2023-04-11T23:50:49.077Z,6.12
2023-04-11T23:56:17.054Z,6.00
